createdAt,value
2019-03-29T00:01:41.105Z,60.65
2019-03-29T00:04:10.093Z,60.49
2019-03-29T00:06:38.989Z,60.74
2019-03-29T00:09:08.493Z,60.23
2019-03-29T00:11:38.211Z,61.16
2019-03-29T00:14:07.915Z,61.32
2019-03-29T00:16:36.803Z,60.26
2019-03-29T00:19:05.663Z,60.68
2019-03-29T00:21:34.483Z,60.58
2019-03-29T00:24:07.051Z,61.46
2019-03-29T00:26:33.719Z,61.14
2019-03-29T00:29:03.106Z,61.26
2019-03-29T00:31:31.676Z,60.92
2019-03-29T00:34:00.344Z,60.72
2019-03-29T00:36:28.976Z,60.65
2019-03-29T00:38:57.602Z,60.79
2019-03-29T00:41:26.264Z,61.51
2019-03-29T00:43:54.758Z,61.87
2019-03-29T00:46:23.248Z,62.06
2019-03-29T00:48:51.926Z,61.71
2019-03-29T00:51:20.561Z,61.88
2019-03-29T00:53:49.172Z,61.50
2019-03-29T00:56:17.865Z,62.41
2019-03-29T00:58:46.512Z,63.18
2019-03-29T01:01:15.145Z,63.17
2019-03-29T01:03:43.746Z,63.32
2019-03-29T01:06:13.057Z,63.91
2019-03-29T01:08:41.897Z,63.57
2019-03-29T01:11:10.802Z,65.38
2019-03-29T01:13:39.384Z,65.37
2019-03-29T01:16:08.020Z,65.40
2019-03-29T01:18:37.906Z,65.21
2019-03-29T01:21:06.460Z,64.97
2019-03-29T01:23:35.101Z,65.17
2019-03-29T01:26:03.763Z,64.23
2019-03-29T01:28:32.264Z,63.88
2019-03-29T01:31:00.757Z,63.69
2019-03-29T01:33:29.424Z,63.82
2019-03-29T01:35:58.067Z,63.28
2019-03-29T01:38:26.557Z,63.25
2019-03-29T01:40:55.349Z,62.93
2019-03-29T01:43:23.977Z,62.00
2019-03-29T01:45:53.559Z,61.82
2019-03-29T01:48:22.982Z,61.85
2019-03-29T01:50:51.699Z,61.63
2019-03-29T01:53:20.337Z,62.24
2019-03-29T01:55:49.184Z,63.16
2019-03-29T01:58:17.742Z,62.66
2019-03-29T02:00:46.429Z,63.27
2019-03-29T02:03:14.966Z,63.46
2019-03-29T02:05:43.460Z,63.37
2019-03-29T02:08:12.176Z,63.58
2019-03-29T02:10:40.838Z,62.58
2019-03-29T02:13:09.477Z,62.42
2019-03-29T02:15:38.168Z,62.48
2019-03-29T02:18:06.931Z,60.96
2019-03-29T02:20:35.569Z,61.27
2019-03-29T02:23:04.389Z,60.75
2019-03-29T02:25:32.920Z,60.96
2019-03-29T02:28:01.645Z,61.39
2019-03-29T02:30:31.980Z,62.47
2019-03-29T02:33:00.676Z,63.10
2019-03-29T02:35:29.173Z,63.27
2019-03-29T02:37:57.808Z,63.20
2019-03-29T02:40:26.302Z,63.81
2019-03-29T02:42:54.928Z,63.85
2019-03-29T02:45:23.806Z,64.11
2019-03-29T02:47:52.280Z,64.46
2019-03-29T02:50:20.769Z,64.16
2019-03-29T02:52:49.494Z,64.22
2019-03-29T02:55:18.106Z,64.11
2019-03-29T02:57:46.708Z,64.09
2019-03-29T03:00:16.988Z,64.11
2019-03-29T03:02:45.614Z,63.86
2019-03-29T03:05:14.344Z,64.07
2019-03-29T03:07:43.127Z,63.85
2019-03-29T03:10:13.665Z,63.88
2019-03-29T03:12:42.300Z,63.61
2019-03-29T03:15:11.612Z,63.70
2019-03-29T03:17:40.232Z,63.77
2019-03-29T03:20:15.078Z,63.88
2019-03-29T03:22:41.619Z,64.05
2019-03-29T03:25:10.650Z,64.27
2019-03-29T03:27:39.278Z,64.08
2019-03-29T03:30:10.551Z,64.41
2019-03-29T03:32:39.182Z,64.46
2019-03-29T03:35:09.321Z,64.10
2019-03-29T03:37:38.052Z,63.74
2019-03-29T03:40:07.667Z,63.56
2019-03-29T03:42:36.398Z,63.48
2019-03-29T03:45:07.683Z,64.62
2019-03-29T03:47:37.112Z,64.80
2019-03-29T03:50:07.743Z,64.70
2019-03-29T03:52:36.781Z,64.87
2019-03-29T03:55:06.706Z,65.74
2019-03-29T03:57:37.544Z,65.77
2019-03-29T04:00:09.864Z,65.27
2019-03-29T04:02:38.494Z,65.23
2019-03-29T04:05:07.623Z,65.82
2019-03-29T04:07:36.217Z,65.72
2019-03-29T04:10:06.889Z,66.17
2019-03-29T04:12:35.524Z,66.44
2019-03-29T04:15:04.482Z,66.71
2019-03-29T04:17:32.956Z,65.90
2019-03-29T04:20:01.470Z,66.39
2019-03-29T04:22:30.150Z,66.87
2019-03-29T04:24:58.783Z,67.12
2019-03-29T04:27:27.349Z,67.32
2019-03-29T04:29:55.876Z,66.46
2019-03-29T04:32:24.505Z,65.40
2019-03-29T04:34:53.156Z,64.16
2019-03-29T04:37:21.675Z,62.43
2019-03-29T04:40:06.198Z,59.65
2019-03-29T04:42:20.593Z,56.51
2019-03-29T04:44:49.132Z,53.72
2019-03-29T04:47:17.769Z,51.04
2019-03-29T04:49:46.408Z,49.09
2019-03-29T04:52:14.929Z,46.73
2019-03-29T04:54:43.500Z,44.00
2019-03-29T04:57:12.206Z,42.64
2019-03-29T04:59:40.876Z,41.67
2019-03-29T05:02:09.442Z,40.94
2019-03-29T05:04:37.929Z,39.62
2019-03-29T05:07:06.624Z,37.78
2019-03-29T05:09:35.232Z,37.85
2019-03-29T05:12:03.798Z,36.95
2019-03-29T05:14:32.339Z,36.32
2019-03-29T05:17:01.060Z,35.99
2019-03-29T05:19:29.692Z,34.89
2019-03-29T05:21:58.235Z,34.78
2019-03-29T05:24:26.806Z,33.72
2019-03-29T05:26:55.444Z,32.50
2019-03-29T05:29:24.113Z,31.83
2019-03-29T05:31:53.773Z,29.94
2019-03-29T05:34:22.359Z,30.71
2019-03-29T05:36:51.040Z,29.97
2019-03-29T05:39:19.696Z,28.93
2019-03-29T05:41:48.186Z,28.27
2019-03-29T05:44:18.071Z,27.66
2019-03-29T05:46:46.701Z,28.52
2019-03-29T05:49:15.337Z,28.41
2019-03-29T05:51:43.878Z,27.65
2019-03-29T05:54:12.517Z,27.14
2019-03-29T05:56:41.156Z,27.46
2019-03-29T05:59:09.784Z,28.45
2019-03-29T06:01:38.533Z,29.98
2019-03-29T06:04:07.178Z,30.10
2019-03-29T06:06:35.813Z,30.51
2019-03-29T06:09:06.261Z,30.04
2019-03-29T06:11:34.900Z,30.04
2019-03-29T06:14:03.773Z,29.82
2019-03-29T06:16:38.969Z,29.40
2019-03-29T06:19:02.584Z,29.24
2019-03-29T06:21:31.282Z,29.89
2019-03-29T06:23:59.916Z,29.24
2019-03-29T06:26:28.488Z,29.15
2019-03-29T06:28:57.037Z,30.21
2019-03-29T06:31:25.672Z,29.71
2019-03-29T06:33:54.417Z,29.28
2019-03-29T06:36:24.994Z,28.92
2019-03-29T06:38:55.551Z,30.76
2019-03-29T06:41:24.184Z,29.66
2019-03-29T06:43:52.720Z,27.66
2019-03-29T06:46:21.365Z,26.26
2019-03-29T06:48:50.023Z,27.42
2019-03-29T06:51:18.549Z,27.36
2019-03-29T06:53:47.119Z,27.13
2019-03-29T06:56:15.754Z,28.79
2019-03-29T06:58:44.449Z,27.27
2019-03-29T07:01:12.954Z,26.56
2019-03-29T07:03:41.450Z,26.29
2019-03-29T07:06:10.129Z,25.30
2019-03-29T07:08:38.807Z,24.01
2019-03-29T07:11:17.405Z,23.24
2019-03-29T07:13:37.748Z,23.07
2019-03-29T07:16:06.392Z,24.63
2019-03-29T07:18:34.892Z,23.57
2019-03-29T07:21:03.573Z,22.56
2019-03-29T07:23:32.210Z,22.50
2019-03-29T07:26:00.741Z,22.51
2019-03-29T07:28:29.248Z,22.43
2019-03-29T07:30:57.973Z,23.75
2019-03-29T07:33:26.612Z,25.06
2019-03-29T07:35:55.144Z,24.17
2019-03-29T07:38:23.660Z,23.28
2019-03-29T07:40:52.296Z,26.26
2019-03-29T07:43:23.904Z,25.77
2019-03-29T07:45:51.433Z,27.11
2019-03-29T07:48:19.922Z,26.85
2019-03-29T07:50:48.562Z,26.37
2019-03-29T07:53:17.199Z,24.83
2019-03-29T07:55:45.729Z,25.30
2019-03-29T07:58:14.296Z,25.94
2019-03-29T08:00:42.920Z,25.39
2019-03-29T08:03:11.831Z,25.01
2019-03-29T08:05:40.400Z,24.51
2019-03-29T08:08:22.688Z,24.58
2019-03-29T08:10:39.297Z,25.48
2019-03-29T08:13:07.927Z,26.56
2019-03-29T08:15:36.559Z,26.20
2019-03-29T08:18:05.168Z,25.54
2019-03-29T08:20:40.506Z,26.27
2019-03-29T08:23:04.163Z,26.44
2019-03-29T08:25:32.768Z,25.48
2019-03-29T08:28:01.261Z,25.10
2019-03-29T08:30:29.965Z,25.90
2019-03-29T08:32:58.946Z,25.82
2019-03-29T08:35:27.564Z,26.25
2019-03-29T08:37:56.206Z,26.23
2019-03-29T08:40:24.992Z,25.79
2019-03-29T08:42:53.488Z,25.73
2019-03-29T08:45:22.125Z,26.02
2019-03-29T08:47:51.044Z,26.01
2019-03-29T08:50:19.608Z,26.06
2019-03-29T08:52:48.196Z,27.42
2019-03-29T08:55:17.716Z,27.54
2019-03-29T08:57:46.467Z,26.24
2019-03-29T09:00:18.006Z,26.28
2019-03-29T09:02:46.556Z,26.58
2019-03-29T09:05:15.198Z,26.99
2019-03-29T09:07:45.388Z,27.29
2019-03-29T09:10:24.722Z,26.70
2019-03-29T09:12:53.206Z,27.38
2019-03-29T09:15:21.838Z,27.28
2019-03-29T09:17:50.638Z,27.94
2019-03-29T09:20:19.273Z,28.56
2019-03-29T09:22:47.908Z,29.21
2019-03-29T09:25:16.657Z,28.54
2019-03-29T09:27:45.153Z,28.85
2019-03-29T09:30:14.076Z,28.55
2019-03-29T09:32:42.886Z,27.46
2019-03-29T09:35:11.622Z,27.67
2019-03-29T09:37:40.113Z,27.79
2019-03-29T09:40:08.899Z,27.00
2019-03-29T09:42:37.536Z,26.89
2019-03-29T09:45:08.269Z,27.25
2019-03-29T09:47:40.565Z,27.66
2019-03-29T09:50:10.415Z,27.03
2019-03-29T09:52:38.135Z,27.18
2019-03-29T09:55:07.541Z,27.06
2019-03-29T09:57:37.650Z,27.55
2019-03-29T10:00:19.375Z,27.50
2019-03-29T10:02:40.998Z,27.75
2019-03-29T10:05:09.830Z,27.41
2019-03-29T10:07:38.468Z,27.02
2019-03-29T10:10:07.438Z,26.43
2019-03-29T10:12:43.418Z,26.98
2019-03-29T10:15:07.894Z,26.67
2019-03-29T10:17:36.569Z,26.76
2019-03-29T10:20:07.277Z,26.35
2019-03-29T10:22:35.909Z,26.86
2019-03-29T10:25:18.512Z,27.13
2019-03-29T10:27:36.897Z,26.71
2019-03-29T10:30:08.070Z,26.55
2019-03-29T10:32:36.561Z,27.06
2019-03-29T10:35:06.866Z,26.59
2019-03-29T10:37:35.701Z,26.34
2019-03-29T10:40:05.833Z,26.71
2019-03-29T10:42:34.392Z,27.02
2019-03-29T10:45:03.074Z,27.05
2019-03-29T10:47:43.076Z,26.90
2019-03-29T10:50:01.934Z,26.70
2019-03-29T10:52:30.789Z,26.53
2019-03-29T10:54:59.420Z,26.90
2019-03-29T10:57:28.049Z,26.93
2019-03-29T10:59:56.653Z,26.99
2019-03-29T11:02:25.156Z,27.17
2019-03-29T11:04:53.783Z,26.98
2019-03-29T11:07:22.593Z,27.14
2019-03-29T11:09:51.088Z,27.46
2019-03-29T11:12:19.733Z,27.29
2019-03-29T11:14:48.649Z,27.21
2019-03-29T11:17:17.214Z,27.82
2019-03-29T11:19:45.915Z,27.66
2019-03-29T11:22:14.599Z,27.46
2019-03-29T11:24:43.094Z,27.83
2019-03-29T11:27:11.583Z,27.80
2019-03-29T11:29:40.262Z,27.55
2019-03-29T11:32:08.889Z,27.18
2019-03-29T11:34:37.393Z,27.64
2019-03-29T11:37:06.009Z,27.29
2019-03-29T11:39:34.691Z,27.03
2019-03-29T11:42:03.772Z,27.11
2019-03-29T11:44:32.880Z,26.99
2019-03-29T11:47:01.365Z,27.52
2019-03-29T11:49:30.002Z,27.50
2019-03-29T11:51:58.665Z,27.57
2019-03-29T11:54:27.242Z,27.32
2019-03-29T11:56:55.870Z,27.89
2019-03-29T11:59:24.476Z,27.93
2019-03-29T12:01:52.990Z,28.18
2019-03-29T12:04:21.613Z,27.96
2019-03-29T12:06:50.282Z,28.05
2019-03-29T12:09:18.879Z,27.79
2019-03-29T12:11:47.442Z,27.99
2019-03-29T12:14:16.107Z,28.20
2019-03-29T12:16:44.731Z,27.94
2019-03-29T12:19:13.417Z,27.74
2019-03-29T12:21:42.043Z,27.06
2019-03-29T12:24:10.679Z,27.52
2019-03-29T12:26:39.311Z,27.29
2019-03-29T12:29:07.924Z,26.87
2019-03-29T12:31:36.485Z,26.99
2019-03-29T12:34:05.135Z,26.97
2019-03-29T12:36:36.924Z,25.47
2019-03-29T12:39:07.171Z,24.93
2019-03-29T12:41:35.809Z,25.10
2019-03-29T12:44:04.580Z,25.09
2019-03-29T12:46:33.142Z,25.06
2019-03-29T12:49:01.770Z,25.06
2019-03-29T12:51:30.439Z,26.69
2019-03-29T12:53:58.939Z,27.55
2019-03-29T12:56:27.432Z,27.13
2019-03-29T12:58:56.105Z,27.18
2019-03-29T13:01:38.473Z,25.91
2019-03-29T13:03:54.994Z,25.70
2019-03-29T13:06:23.703Z,26.07
2019-03-29T13:08:52.343Z,27.12
2019-03-29T13:11:20.973Z,27.58
2019-03-29T13:13:49.508Z,28.33
2019-03-29T13:16:18.140Z,28.37
2019-03-29T13:18:46.700Z,28.24
2019-03-29T13:21:15.248Z,27.89
2019-03-29T13:23:43.894Z,28.11
2019-03-29T13:26:12.563Z,27.55
2019-03-29T13:28:41.046Z,27.27
2019-03-29T13:31:09.677Z,27.29
2019-03-29T13:33:38.383Z,27.25
2019-03-29T13:36:07.864Z,27.64
2019-03-29T13:38:36.354Z,27.69
2019-03-29T13:41:06.969Z,28.15
2019-03-29T13:43:35.388Z,28.39
2019-03-29T13:46:04.035Z,28.51
2019-03-29T13:48:32.598Z,28.26
2019-03-29T13:51:01.382Z,28.35
2019-03-29T13:53:30.064Z,28.09
2019-03-29T13:55:58.615Z,28.24
2019-03-29T13:58:27.448Z,29.00
2019-03-29T14:00:56.084Z,29.19
2019-03-29T14:03:24.571Z,29.36
2019-03-29T14:05:53.118Z,29.59
2019-03-29T14:08:21.759Z,29.60
2019-03-29T14:10:50.393Z,29.51
2019-03-29T14:13:19.794Z,29.16
2019-03-29T14:15:48.409Z,28.17
2019-03-29T14:18:17.036Z,28.25
2019-03-29T14:20:45.937Z,28.38
2019-03-29T14:23:14.491Z,28.58
2019-03-29T14:25:42.988Z,28.87
2019-03-29T14:28:11.864Z,29.17
2019-03-29T14:30:40.496Z,29.19
2019-03-29T14:33:08.976Z,29.33
2019-03-29T14:35:37.649Z,29.40
2019-03-29T14:38:06.224Z,29.25
2019-03-29T14:40:34.788Z,29.57
2019-03-29T14:43:03.458Z,29.72
2019-03-29T14:45:32.095Z,29.21
2019-03-29T14:48:00.586Z,29.62
2019-03-29T14:50:29.330Z,29.49
2019-03-29T14:52:58.183Z,29.70
2019-03-29T14:55:27.418Z,29.76
2019-03-29T14:57:56.284Z,29.33
2019-03-29T15:00:36.731Z,29.57
2019-03-29T15:03:05.903Z,29.75
2019-03-29T15:05:34.808Z,29.97
2019-03-29T15:08:03.443Z,29.66
2019-03-29T15:10:32.309Z,29.40
2019-03-29T15:13:00.945Z,29.80
2019-03-29T15:15:29.509Z,29.88
2019-03-29T15:17:58.185Z,30.21
2019-03-29T15:20:26.813Z,29.87
2019-03-29T15:22:55.376Z,30.05
2019-03-29T15:25:23.902Z,29.87
2019-03-29T15:27:53.613Z,29.71
2019-03-29T15:30:22.247Z,29.92
2019-03-29T15:32:51.013Z,30.15
2019-03-29T15:35:21.032Z,30.30
2019-03-29T15:37:49.820Z,30.56
2019-03-29T15:40:18.553Z,30.74
2019-03-29T15:42:47.043Z,30.74
2019-03-29T15:45:20.768Z,30.49
2019-03-29T15:47:46.298Z,30.74
2019-03-29T15:50:14.945Z,30.98
2019-03-29T15:52:43.441Z,31.24
2019-03-29T15:55:12.448Z,31.45
2019-03-29T15:57:41.083Z,31.67
2019-03-29T16:00:11.022Z,31.54
2019-03-29T16:02:39.615Z,32.00
2019-03-29T16:05:08.245Z,32.44
2019-03-29T16:07:36.888Z,32.58
2019-03-29T16:10:06.948Z,33.21
2019-03-29T16:12:35.441Z,33.67
2019-03-29T16:15:05.171Z,33.78
2019-03-29T16:17:33.834Z,33.97
2019-03-29T16:20:02.462Z,34.12
2019-03-29T16:22:30.944Z,34.38
2019-03-29T16:24:59.613Z,34.41
2019-03-29T16:27:28.247Z,34.96
2019-03-29T16:29:56.991Z,35.31
2019-03-29T16:32:25.597Z,35.93
2019-03-29T16:34:54.218Z,36.42
2019-03-29T16:37:22.777Z,36.69
2019-03-29T16:39:51.301Z,37.01
2019-03-29T16:42:20.021Z,37.38
2019-03-29T16:44:48.651Z,37.59
2019-03-29T16:47:17.175Z,37.61
2019-03-29T16:49:45.688Z,37.69
2019-03-29T16:52:14.315Z,37.86
2019-03-29T16:54:42.993Z,38.15
2019-03-29T16:57:11.549Z,38.36
2019-03-29T16:59:40.030Z,38.53
2019-03-29T17:02:08.813Z,38.65
2019-03-29T17:04:37.446Z,38.87
2019-03-29T17:07:06.012Z,39.06
2019-03-29T17:09:34.544Z,39.18
2019-03-29T17:12:03.167Z,39.44
2019-03-29T17:14:31.739Z,40.05
2019-03-29T17:17:00.373Z,40.58
2019-03-29T17:19:28.997Z,41.01
2019-03-29T17:21:57.600Z,41.27
2019-03-29T17:24:26.088Z,41.62
2019-03-29T17:26:54.730Z,41.88
2019-03-29T17:29:23.393Z,42.18
2019-03-29T17:31:52.019Z,42.49
2019-03-29T17:34:20.515Z,42.76
2019-03-29T17:36:49.180Z,43.05
2019-03-29T17:39:17.804Z,43.24
2019-03-29T17:41:46.294Z,43.59
2019-03-29T17:44:14.818Z,43.83
2019-03-29T17:46:43.439Z,44.18
2019-03-29T17:49:12.070Z,44.72
2019-03-29T17:51:40.623Z,44.70
2019-03-29T17:54:09.240Z,44.73
2019-03-29T17:56:37.803Z,44.87
2019-03-29T17:59:06.356Z,45.17
2019-03-29T18:01:34.978Z,45.32
2019-03-29T18:04:03.608Z,45.63
2019-03-29T18:06:32.141Z,45.75
2019-03-29T18:09:00.694Z,45.76
2019-03-29T18:11:29.322Z,46.02
2019-03-29T18:13:58.012Z,46.17
2019-03-29T18:16:30.787Z,46.42
2019-03-29T18:18:56.806Z,46.49
2019-03-29T18:21:25.489Z,46.86
2019-03-29T18:23:54.122Z,46.94
2019-03-29T18:26:22.794Z,47.28
2019-03-29T18:28:51.469Z,47.33
2019-03-29T18:31:20.216Z,47.59
2019-03-29T18:33:49.045Z,47.72
2019-03-29T18:36:17.936Z,47.78
2019-03-29T18:38:48.969Z,48.09
2019-03-29T18:41:17.463Z,48.07
2019-03-29T18:43:45.959Z,48.20
2019-03-29T18:46:14.696Z,48.23
2019-03-29T18:48:43.365Z,48.40
2019-03-29T18:51:11.996Z,48.76
2019-03-29T18:53:40.487Z,48.86
2019-03-29T18:56:09.379Z,49.02
2019-03-29T18:58:38.020Z,49.34
2019-03-29T19:01:06.578Z,49.62
2019-03-29T19:03:35.141Z,49.85
2019-03-29T19:06:03.887Z,49.93
2019-03-29T19:08:32.512Z,50.20
2019-03-29T19:11:01.116Z,50.30
2019-03-29T19:13:29.754Z,50.65
2019-03-29T19:15:58.248Z,50.39
2019-03-29T19:18:27.025Z,50.58
2019-03-29T19:20:55.662Z,50.85
2019-03-29T19:23:24.301Z,51.07
2019-03-29T19:25:52.835Z,51.41
2019-03-29T19:28:21.322Z,51.22
2019-03-29T19:30:49.955Z,51.33
2019-03-29T19:33:18.633Z,51.53
2019-03-29T19:35:47.270Z,51.45
2019-03-29T19:38:15.923Z,51.43
2019-03-29T19:40:44.598Z,51.64
2019-03-29T19:43:13.234Z,51.94
2019-03-29T19:45:41.800Z,51.87
2019-03-29T19:48:10.349Z,51.82
2019-03-29T19:50:39.000Z,51.96
2019-03-29T19:53:07.517Z,52.31
2019-03-29T19:55:36.387Z,52.38
2019-03-29T19:58:05.074Z,52.32
2019-03-29T20:00:39.446Z,52.55
2019-03-29T20:03:08.075Z,52.40
2019-03-29T20:05:37.913Z,52.70
2019-03-29T20:08:06.641Z,52.90
2019-03-29T20:10:35.245Z,53.07
2019-03-29T20:13:04.084Z,53.26
2019-03-29T20:15:32.807Z,53.19
2019-03-29T20:18:01.488Z,53.08
2019-03-29T20:20:29.977Z,53.23
2019-03-29T20:22:58.705Z,53.38
2019-03-29T20:25:27.571Z,53.14
2019-03-29T20:27:58.546Z,53.42
2019-03-29T20:30:27.053Z,53.75
2019-03-29T20:32:55.680Z,53.90
2019-03-29T20:35:24.310Z,54.23
2019-03-29T20:37:52.856Z,54.52
2019-03-29T20:40:21.592Z,54.85
2019-03-29T20:42:50.297Z,55.00
2019-03-29T20:45:18.960Z,54.90
2019-03-29T20:47:50.994Z,54.77
2019-03-29T20:50:17.883Z,54.56
2019-03-29T20:52:46.839Z,54.69
2019-03-29T20:55:15.469Z,54.75
2019-03-29T20:57:44.104Z,55.07
2019-03-29T21:00:14.655Z,55.02
2019-03-29T21:02:43.288Z,55.13
2019-03-29T21:05:12.322Z,55.16
2019-03-29T21:07:40.845Z,55.24
2019-03-29T21:10:09.672Z,55.31
2019-03-29T21:12:38.303Z,55.59
2019-03-29T21:15:07.574Z,55.91
2019-03-29T21:17:36.905Z,55.97
2019-03-29T21:20:07.896Z,56.12
2019-03-29T21:22:36.572Z,56.04
2019-03-29T21:25:07.278Z,56.10
2019-03-29T21:27:35.943Z,56.25
2019-03-29T21:30:06.920Z,56.49
2019-03-29T21:32:35.545Z,56.74
2019-03-29T21:35:05.271Z,56.79
2019-03-29T21:37:33.814Z,57.13
2019-03-29T21:40:02.452Z,57.07
2019-03-29T21:42:31.072Z,57.54
2019-03-29T21:44:59.598Z,57.19
2019-03-29T21:47:28.162Z,57.42
2019-03-29T21:49:56.795Z,57.36
2019-03-29T21:52:25.396Z,57.51
2019-03-29T21:54:54.108Z,57.45
2019-03-29T21:57:22.745Z,57.58
2019-03-29T21:59:51.242Z,57.65
2019-03-29T22:02:21.496Z,57.88
2019-03-29T22:04:50.154Z,58.23
2019-03-29T22:07:18.790Z,58.67
2019-03-29T22:09:47.319Z,58.70
2019-03-29T22:12:15.888Z,59.12
2019-03-29T22:14:44.524Z,59.46
2019-03-29T22:17:13.158Z,59.72
2019-03-29T22:19:41.765Z,59.36
2019-03-29T22:22:10.259Z,59.40
2019-03-29T22:24:38.894Z,60.04
2019-03-29T22:27:07.570Z,60.39
2019-03-29T22:29:36.068Z,60.39
2019-03-29T22:32:04.701Z,60.37
2019-03-29T22:34:33.464Z,61.09
2019-03-29T22:37:01.958Z,61.26
2019-03-29T22:39:30.604Z,60.95
2019-03-29T22:41:59.274Z,61.06
2019-03-29T22:44:27.836Z,61.36
2019-03-29T22:46:56.404Z,61.14
2019-03-29T22:49:25.264Z,61.15
2019-03-29T22:51:53.908Z,60.79
2019-03-29T22:54:22.402Z,60.78
2019-03-29T22:56:50.940Z,60.89
2019-03-29T22:59:19.577Z,60.93
2019-03-29T23:01:48.341Z,61.07
2019-03-29T23:04:16.891Z,61.33
2019-03-29T23:06:45.429Z,61.38
2019-03-29T23:09:14.088Z,61.68
2019-03-29T23:11:42.684Z,62.02
2019-03-29T23:14:11.328Z,62.33
2019-03-29T23:16:39.962Z,62.70
2019-03-29T23:19:08.534Z,62.90
2019-03-29T23:21:37.029Z,62.98
2019-03-29T23:24:05.700Z,62.90
2019-03-29T23:26:34.336Z,62.55
2019-03-29T23:29:02.911Z,62.17
2019-03-29T23:31:31.441Z,62.17
2019-03-29T23:34:00.074Z,61.90
2019-03-29T23:36:28.707Z,61.67
2019-03-29T23:38:57.376Z,61.86
2019-03-29T23:41:25.871Z,61.81
2019-03-29T23:43:54.500Z,61.74
2019-03-29T23:46:23.172Z,61.75
2019-03-29T23:48:51.712Z,61.82
2019-03-29T23:51:20.300Z,61.89
2019-03-29T23:53:48.852Z,61.76
2019-03-29T23:56:17.343Z,61.85
2019-03-29T23:58:45.979Z,61.78
